Time;durP1;ratioP1;P1;durP2;ratioP2;P2;SDS_P1;SDS_P2;PMS_P1;PMS_P2;Temp;Humidity;BMP_temperature;BMP_pressure;BME280_temperature;BME280_humidity;BME280_pressure;Samples;Min_cycle;Max_cycle;Signal;HPM_P1;HPM_P2
2022/09/24 00:00:48;;;;;;;10.90;9.10;;;;;20.40;101112.00;;;;5013584;28;20189;-80
2022/09/24 00:03:18;;;;;;;11.73;9.30;;;;;20.30;101117.00;;;;4994118;28;20268;-79
2022/09/24 00:05:47;;;;;;;10.82;8.85;;;;;20.30;101110.00;;;;5008887;28;20220;-79
2022/09/24 00:08:18;;;;;;;9.60;8.18;;;;;20.30;101112.00;;;;5008582;28;20204;-80
2022/09/24 00:10:47;;;;;;;10.90;8.20;;;;;20.30;101110.00;;;;5008757;28;20200;-80
2022/09/24 00:13:17;;;;;;;10.80;8.85;;;;;20.30;101113.00;;;;5006444;28;20576;-79
2022/09/24 00:15:47;;;;;;;11.07;9.00;;;;;20.30;101116.00;;;;5017642;28;20193;-79
2022/09/24 00:18:15;;;;;;;9.32;7.60;;;;;20.30;101107.00;;;;5008174;28;20718;-79
2022/09/24 00:20:42;;;;;;;10.35;8.30;;;;;20.30;101109.00;;;;5009891;28;20192;-80
2022/09/24 00:23:11;;;;;;;10.40;8.13;;;;;20.30;101107.00;;;;5013849;28;20212;-80
2022/09/24 00:28:27;;;;;;;9.30;7.18;;;;;20.20;101101.00;;;;4965716;28;20248;-80
2022/09/24 00:30:56;;;;;;;9.95;7.93;;;;;20.20;101106.00;;;;5009610;28;20663;-79
2022/09/24 00:33:24;;;;;;;11.93;7.65;;;;;20.20;101095.00;;;;5007669;28;20721;-80
2022/09/24 00:35:51;;;;;;;8.40;7.10;;;;;20.20;101103.00;;;;5009866;28;20216;-78
2022/09/24 00:38:18;;;;;;;10.02;7.78;;;;;20.20;101099.00;;;;5007769;28;20228;-78
2022/09/24 00:40:47;;;;;;;9.85;8.05;;;;;20.20;101095.00;;;;5017154;28;20193;-78
2022/09/24 00:43:25;;;;;;;13.57;8.45;;;;;20.10;101088.00;;;;5021871;28;20212;-78
2022/09/24 00:45:55;;;;;;;11.07;8.02;;;;;20.20;101083.00;;;;5008751;28;20785;-78
2022/09/24 00:48:23;;;;;;;8.68;7.15;;;;;20.20;101085.00;;;;5005107;28;20232;-78
2022/09/24 00:50:51;;;;;;;10.20;8.15;;;;;20.20;101084.00;;;;5017404;28;20204;-78
2022/09/24 00:53:21;;;;;;;11.27;7.95;;;;;20.10;101080.00;;;;5008988;28;20213;-78
2022/09/24 00:55:53;;;;;;;11.95;7.78;;;;;20.10;101079.00;;;;5025427;28;20566;-79
2022/09/24 00:58:22;;;;;;;9.40;7.82;;;;;20.20;101073.00;;;;5017466;28;20319;-79
2022/09/24 01:00:51;;;;;;;19.67;8.23;;;;;20.20;101068.00;;;;5006417;28;20275;-79
2022/09/24 01:03:23;;;;;;;10.30;8.05;;;;;20.20;101075.00;;;;5006571;28;20217;-79
2022/09/24 01:05:50;;;;;;;11.05;8.45;;;;;20.20;101070.00;;;;4997348;28;20201;-79
2022/09/24 01:08:19;;;;;;;10.40;8.50;;;;;20.20;101069.00;;;;5007213;28;20197;-79
2022/09/24 01:11:07;;;;;;;12.63;9.32;;;;;20.10;101071.00;;;;5003912;28;20209;-79
2022/09/24 01:13:44;;;;;;;15.27;9.32;;;;;20.10;101065.00;;;;5005779;28;20189;-79
2022/09/24 01:16:20;;;;;;;13.70;10.18;;;;;20.20;101062.00;;;;5009031;28;20234;-79
2022/09/24 01:18:54;;;;;;;12.02;8.65;;;;;20.20;101057.00;;;;5005067;28;20220;-79
2022/09/24 01:21:30;;;;;;;12.93;9.93;;;;;20.10;101062.00;;;;5019449;28;20200;-80
2022/09/24 01:24:37;;;;;;;13.82;9.35;;;;;20.10;101057.00;;;;5010436;28;20200;-79
2022/09/24 01:27:11;;;;;;;13.27;9.75;;;;;20.10;101050.00;;;;4983637;28;20601;-79
2022/09/24 01:30:02;;;;;;;13.50;9.93;;;;;20.00;101046.00;;;;5010113;28;20227;-79
2022/09/24 01:32:36;;;;;;;13.20;9.65;;;;;20.10;101046.00;;;;5022179;28;20197;-79
2022/09/24 01:35:09;;;;;;;16.08;10.68;;;;;20.10;101044.00;;;;5013437;28;20237;-79
2022/09/24 01:37:40;;;;;;;14.27;10.93;;;;;20.10;101049.00;;;;5018025;28;20204;-78
2022/09/24 01:40:09;;;;;;;13.85;10.50;;;;;20.10;101039.00;;;;5009622;28;20315;-78
2022/09/24 01:42:39;;;;;;;14.20;11.02;;;;;20.10;101038.00;;;;5009206;28;20253;-79
2022/09/24 01:45:10;;;;;;;15.50;11.88;;;;;20.00;101037.00;;;;5002337;28;20200;-78
2022/09/24 01:47:40;;;;;;;14.55;10.82;;;;;20.00;101036.00;;;;5016636;28;20193;-79
2022/09/24 01:50:09;;;;;;;15.10;11.02;;;;;20.00;101032.00;;;;5016140;28;20200;-79
2022/09/24 01:52:44;;;;;;;16.40;12.68;;;;;20.00;101036.00;;;;5020205;28;20207;-79
2022/09/24 01:55:15;;;;;;;13.77;10.27;;;;;20.00;101036.00;;;;5011173;28;20193;-79
2022/09/24 01:57:46;;;;;;;14.82;11.20;;;;;20.00;101034.00;;;;5007210;28;20204;-79
2022/09/24 02:00:17;;;;;;;14.13;11.95;;;;;20.00;101030.00;;;;4994371;28;20213;-79
2022/09/24 02:02:48;;;;;;;14.05;10.80;;;;;20.00;101025.00;;;;5003596;28;20197;-79
2022/09/24 02:05:23;;;;;;;17.80;11.68;;;;;20.00;101024.00;;;;5010747;28;20189;-79
2022/09/24 02:08:00;;;;;;;16.02;11.68;;;;;20.00;101025.00;;;;5010202;28;20200;-79
2022/09/24 02:10:34;;;;;;;15.30;11.50;;;;;20.00;101024.00;;;;5009103;28;20197;-79
2022/09/24 02:13:04;;;;;;;15.02;11.50;;;;;20.00;101024.00;;;;5009123;28;20593;-79
2022/09/24 02:15:36;;;;;;;14.43;10.10;;;;;19.90;101022.00;;;;5013221;28;20205;-79
2022/09/24 02:18:05;;;;;;;16.58;10.80;;;;;20.00;101016.00;;;;5001710;28;20209;-80
2022/09/24 02:20:35;;;;;;;15.20;10.52;;;;;19.90;101014.00;;;;5007275;28;20710;-79
2022/09/24 02:23:04;;;;;;;16.58;10.38;;;;;19.90;101015.00;;;;5021388;28;20193;-80
2022/09/24 02:25:38;;;;;;;13.23;10.15;;;;;19.90;101012.00;;;;5012317;28;20201;-80
2022/09/24 02:28:05;;;;;;;16.27;10.23;;;;;19.90;101013.00;;;;5017724;28;20196;-80
2022/09/24 02:30:41;;;;;;;13.75;9.52;;;;;19.90;101008.00;;;;5014355;28;20204;-80
2022/09/24 02:34:19;;;;;;;11.75;9.32;;;;;19.90;101005.00;;;;5006004;28;20197;-80
2022/09/24 02:35:58;;;;;;;12.70;9.68;;;;;19.90;101004.00;;;;5004917;28;20700;-80
2022/09/24 02:38:25;;;;;;;14.32;10.00;;;;;19.90;101000.00;;;;5011165;28;20216;-79
2022/09/24 02:40:54;;;;;;;13.55;9.98;;;;;19.90;101001.00;;;;5018051;28;20203;-80
2022/09/24 02:43:22;;;;;;;13.07;9.88;;;;;19.90;100998.00;;;;5009796;28;20205;-80
2022/09/24 02:45:50;;;;;;;12.05;9.35;;;;;19.90;101000.00;;;;5005171;28;20213;-79
2022/09/24 02:48:18;;;;;;;13.20;9.63;;;;;19.90;101001.00;;;;5008137;28;20205;-80
2022/09/24 02:50:46;;;;;;;11.00;8.38;;;;;19.90;100999.00;;;;5011586;28;20421;-79
2022/09/24 02:53:13;;;;;;;12.10;9.68;;;;;19.90;100989.00;;;;5002571;28;20201;-80
2022/09/24 02:55:41;;;;;;;11.73;9.35;;;;;19.90;100996.00;;;;5017461;28;20193;-80
2022/09/24 02:58:08;;;;;;;13.80;10.43;;;;;19.90;100993.00;;;;5020605;28;20233;-80
2022/09/24 03:00:36;;;;;;;12.88;10.05;;;;;19.90;100989.00;;;;5017415;28;20231;-80
2022/09/24 03:03:04;;;;;;;12.30;9.00;;;;;19.80;100993.00;;;;5017359;28;20208;-80
2022/09/24 03:05:31;;;;;;;11.88;8.95;;;;;19.80;100989.00;;;;5000875;28;20200;-80
2022/09/24 03:07:59;;;;;;;11.90;9.40;;;;;19.90;100997.00;;;;5008925;28;20201;-80
2022/09/24 03:10:26;;;;;;;13.60;9.82;;;;;19.90;100988.00;;;;5016292;28;20558;-80
2022/09/24 03:12:53;;;;;;;12.27;9.88;;;;;19.90;100987.00;;;;5013072;28;20193;-80
2022/09/24 03:15:20;;;;;;;13.48;9.35;;;;;19.90;100981.00;;;;5015227;28;20196;-80
2022/09/24 03:17:48;;;;;;;13.25;10.05;;;;;19.90;100979.00;;;;5015077;28;20205;-80
2022/09/24 03:20:16;;;;;;;12.32;9.15;;;;;19.80;100979.00;;;;5007228;28;20221;-80
2022/09/24 03:22:44;;;;;;;13.20;9.60;;;;;19.80;100983.00;;;;5025517;28;20212;-80
2022/09/24 03:25:11;;;;;;;12.15;9.85;;;;;19.90;100979.00;;;;5011531;28;20367;-81
2022/09/24 03:27:38;;;;;;;14.63;11.07;;;;;19.80;100980.00;;;;4995136;28;20201;-81
2022/09/24 03:32:51;;;;;;;12.48;10.10;;;;;19.80;100972.00;;;;5008412;28;20200;-81
2022/09/24 03:35:20;;;;;;;13.90;10.73;;;;;19.80;100976.00;;;;5013916;28;20211;-81
2022/09/24 03:37:48;;;;;;;13.13;9.95;;;;;19.80;100970.00;;;;5024201;28;20235;-81
2022/09/24 03:40:15;;;;;;;12.50;9.30;;;;;19.80;100969.00;;;;5016715;28;20677;-81
2022/09/24 03:42:42;;;;;;;12.52;10.07;;;;;19.80;100966.00;;;;5004585;28;20201;-81
2022/09/24 03:45:10;;;;;;;12.30;9.05;;;;;19.80;100965.00;;;;5011626;28;20197;-82
2022/09/24 03:47:37;;;;;;;14.43;10.48;;;;;19.80;100976.00;;;;5012695;28;20667;-81
2022/09/24 03:50:06;;;;;;;11.48;9.23;;;;;19.90;100967.00;;;;5008322;28;20569;-80
2022/09/24 03:52:34;;;;;;;15.07;10.85;;;;;19.80;100967.00;;;;5005340;28;20197;-80
2022/09/24 03:55:01;;;;;;;10.68;8.85;;;;;19.80;100968.00;;;;4992353;28;20204;-80
2022/09/24 03:57:29;;;;;;;11.40;8.63;;;;;19.80;100964.00;;;;5006312;28;20201;-80
2022/09/24 03:59:57;;;;;;;11.77;9.38;;;;;19.90;100962.00;;;;5005425;28;20235;-80
2022/09/24 04:02:24;;;;;;;12.30;9.93;;;;;19.90;100962.00;;;;5015185;28;20573;-81
2022/09/24 04:04:52;;;;;;;11.98;9.82;;;;;19.80;100963.00;;;;5009098;28;20229;-81
2022/09/24 04:07:20;;;;;;;12.75;8.93;;;;;19.80;100963.00;;;;5007819;28;20251;-81
2022/09/24 04:09:48;;;;;;;14.65;9.50;;;;;19.80;100956.00;;;;5011032;28;20204;-80
2022/09/24 04:12:15;;;;;;;12.85;9.23;;;;;19.80;100956.00;;;;5009368;28;20204;-80
2022/09/24 04:14:43;;;;;;;11.40;7.93;;;;;19.80;100956.00;;;;5008259;28;20204;-81
2022/09/24 04:17:10;;;;;;;10.10;8.27;;;;;19.80;100953.00;;;;5000263;28;20209;-80
2022/09/24 04:19:38;;;;;;;13.05;9.00;;;;;19.80;100957.00;;;;4991898;28;20217;-80
2022/09/24 04:22:05;;;;;;;11.10;8.93;;;;;19.80;100951.00;;;;5027975;28;20196;-80
2022/09/24 04:24:33;;;;;;;11.15;9.10;;;;;19.80;100956.00;;;;5023213;28;20201;-80
2022/09/24 04:27:01;;;;;;;12.27;8.60;;;;;19.80;100947.00;;;;5008856;28;20200;-80
2022/09/24 04:29:28;;;;;;;11.25;9.10;;;;;19.80;100945.00;;;;5007933;28;20212;-80
2022/09/24 04:31:57;;;;;;;12.30;8.98;;;;;19.80;100941.00;;;;5005983;28;20200;-80
2022/09/24 04:34:24;;;;;;;10.48;8.65;;;;;19.90;100940.00;;;;5005280;28;20200;-81
2022/09/24 04:36:51;;;;;;;11.15;8.45;;;;;19.90;100948.00;;;;5007889;28;20220;-80
2022/09/24 04:39:21;;;;;;;11.60;8.70;;;;;19.80;100941.00;;;;5007988;28;20197;-81
2022/09/24 04:41:48;;;;;;;11.27;8.70;;;;;19.90;100941.00;;;;5011991;28;20197;-80
2022/09/24 04:44:17;;;;;;;11.73;9.18;;;;;19.80;100941.00;;;;5007153;28;20205;-81
2022/09/24 04:46:44;;;;;;;9.82;8.27;;;;;19.90;100946.00;;;;5008568;28;20693;-80
2022/09/24 04:49:12;;;;;;;11.27;8.32;;;;;19.90;100948.00;;;;5008128;28;20201;-81
2022/09/24 04:51:40;;;;;;;10.10;7.80;;;;;19.90;100941.00;;;;5010453;28;20259;-82
2022/09/24 04:54:08;;;;;;;10.55;8.85;;;;;19.90;100953.00;;;;5002745;28;20201;-80
2022/09/24 04:56:35;;;;;;;11.48;8.77;;;;;19.90;100950.00;;;;5008467;28;20204;-80
2022/09/24 04:59:02;;;;;;;18.55;13.45;;;;;19.90;100948.00;;;;5005078;28;20455;-80
2022/09/24 05:01:31;;;;;;;13.93;9.98;;;;;20.00;100946.00;;;;5007502;28;20232;-81
2022/09/24 05:03:58;;;;;;;11.90;8.90;;;;;20.00;100951.00;;;;5009592;28;20236;-81
2022/09/24 05:06:26;;;;;;;15.35;7.90;;;;;20.00;100950.00;;;;5003337;28;20204;-81
2022/09/24 05:08:53;;;;;;;9.75;8.25;;;;;20.00;100957.00;;;;4998485;28;20197;-81
2022/09/24 05:11:21;;;;;;;10.35;8.05;;;;;20.00;100948.00;;;;5002711;28;20197;-80
2022/09/24 05:13:48;;;;;;;9.65;7.93;;;;;20.00;100955.00;;;;5008092;28;20193;-81
2022/09/24 05:16:15;;;;;;;9.90;7.53;;;;;20.00;100949.00;;;;5009440;28;20200;-81
2022/09/24 05:18:44;;;;;;;8.88;7.43;;;;;20.00;100954.00;;;;5019285;28;20207;-80
2022/09/24 05:21:11;;;;;;;9.55;8.00;;;;;20.00;100950.00;;;;5007218;28;20232;-80
2022/09/24 05:23:38;;;;;;;9.10;7.63;;;;;20.00;100953.00;;;;5006858;28;20197;-81
2022/09/24 05:28:53;;;;;;;10.25;7.70;;;;;20.00;100953.00;;;;5012653;28;20302;-81
2022/09/24 05:31:20;;;;;;;12.05;8.90;;;;;20.00;100954.00;;;;5008366;28;20205;-81
2022/09/24 05:33:50;;;;;;;9.75;8.75;;;;;20.00;100957.00;;;;5007627;28;20204;-80
2022/09/24 05:36:18;;;;;;;10.77;7.85;;;;;20.00;100960.00;;;;5008145;28;20197;-81
2022/09/24 05:38:45;;;;;;;10.68;7.80;;;;;20.00;100958.00;;;;5004863;28;20225;-80
2022/09/24 05:41:12;;;;;;;10.23;7.32;;;;;20.00;100971.00;;;;5004666;28;20690;-80
2022/09/24 05:43:40;;;;;;;9.95;8.05;;;;;20.00;100967.00;;;;5006299;28;20873;-81
2022/09/24 05:46:08;;;;;;;11.85;8.25;;;;;20.00;100969.00;;;;5008153;28;20582;-81
2022/09/24 05:48:35;;;;;;;9.68;7.57;;;;;20.00;100973.00;;;;5006114;28;20208;-81
2022/09/24 05:51:04;;;;;;;10.85;8.45;;;;;20.00;100970.00;;;;5007045;28;20292;-81
2022/09/24 05:53:32;;;;;;;10.30;8.40;;;;;20.00;100969.00;;;;5005869;28;20686;-81
2022/09/24 05:56:00;;;;;;;9.45;7.90;;;;;20.00;100974.00;;;;5005953;28;20201;-81
2022/09/24 05:58:27;;;;;;;8.93;7.30;;;;;20.00;100973.00;;;;5006626;28;20237;-80
2022/09/24 06:00:55;;;;;;;9.55;8.02;;;;;20.00;100977.00;;;;5009628;28;20224;-80
2022/09/24 06:03:22;;;;;;;10.05;8.18;;;;;20.00;100977.00;;;;5011051;28;20216;-80
2022/09/24 06:05:50;;;;;;;10.50;8.55;;;;;20.00;100981.00;;;;5010040;28;20207;-80
2022/09/24 06:08:20;;;;;;;10.02;8.13;;;;;20.00;100972.00;;;;5010177;28;20236;-80
2022/09/24 06:10:48;;;;;;;10.45;7.82;;;;;20.00;100978.00;;;;5015729;28;20667;-80
2022/09/24 06:13:18;;;;;;;10.15;7.88;;;;;20.00;100979.00;;;;5010495;28;20573;-81
2022/09/24 06:15:46;;;;;;;10.05;7.75;;;;;20.00;100980.00;;;;5006617;28;20210;-80
2022/09/24 06:18:13;;;;;;;9.55;7.80;;;;;20.00;100978.00;;;;5009318;28;20621;-81
2022/09/24 06:20:40;;;;;;;9.60;7.45;;;;;20.00;100978.00;;;;5007720;28;20237;-81
2022/09/24 06:23:08;;;;;;;10.57;8.32;;;;;20.00;100982.00;;;;5010036;28;20201;-82
2022/09/24 06:25:36;;;;;;;8.55;7.47;;;;;20.00;100983.00;;;;5010843;28;20205;-82
2022/09/24 06:28:04;;;;;;;11.98;8.63;;;;;20.00;100978.00;;;;5013716;28;20197;-81
2022/09/24 06:30:34;;;;;;;8.95;7.95;;;;;20.00;100985.00;;;;5006527;28;20655;-82
2022/09/24 06:33:04;;;;;;;10.27;8.05;;;;;20.10;100989.00;;;;5002090;28;20209;-82
2022/09/24 06:35:33;;;;;;;10.77;8.63;;;;;20.10;100985.00;;;;5007977;28;20220;-80
2022/09/24 06:38:00;;;;;;;10.02;8.70;;;;;20.10;100996.00;;;;5010301;28;20208;-79
2022/09/24 06:40:27;;;;;;;10.70;8.05;;;;;20.10;100996.00;;;;5010394;28;20308;-79
2022/09/24 06:42:56;;;;;;;11.25;8.65;;;;;20.10;100996.00;;;;5008684;28;20201;-79
2022/09/24 06:45:25;;;;;;;10.90;8.63;;;;;20.10;101000.00;;;;5009776;28;20284;-79
2022/09/24 06:47:54;;;;;;;11.00;8.80;;;;;20.10;100999.00;;;;5010833;28;20201;-80
2022/09/24 06:50:21;;;;;;;9.32;8.02;;;;;20.10;100997.00;;;;5009628;28;20697;-80
2022/09/24 06:52:49;;;;;;;11.70;8.82;;;;;20.10;100999.00;;;;5010029;28;20216;-80
2022/09/24 06:55:17;;;;;;;11.85;9.18;;;;;20.10;101005.00;;;;5010168;28;20201;-79
2022/09/24 06:57:44;;;;;;;11.30;9.32;;;;;20.10;101002.00;;;;5009854;28;20205;-79
2022/09/24 07:00:15;;;;;;;10.32;8.40;;;;;20.10;101006.00;;;;5010268;28;20228;-79
2022/09/24 07:02:43;;;;;;;13.07;9.50;;;;;20.10;101008.00;;;;5024583;28;20200;-79
2022/09/24 07:05:10;;;;;;;12.98;9.45;;;;;20.10;101014.00;;;;5010640;28;20846;-80
2022/09/24 07:07:37;;;;;;;11.48;9.73;;;;;20.10;101013.00;;;;5010324;28;20655;-80
2022/09/24 07:10:07;;;;;;;11.27;8.50;;;;;20.10;101008.00;;;;5009561;28;20212;-80
2022/09/24 07:12:36;;;;;;;12.60;8.63;;;;;20.10;101009.00;;;;5009352;28;20208;-81
2022/09/24 07:15:03;;;;;;;16.70;8.88;;;;;20.10;101012.00;;;;5009601;28;20225;-81
2022/09/24 07:17:32;;;;;;;13.95;9.30;;;;;20.10;101019.00;;;;5009686;28;20213;-82
2022/09/24 07:19:59;;;;;;;14.70;9.27;;;;;20.10;101023.00;;;;5009405;28;20212;-82
2022/09/24 07:22:26;;;;;;;13.10;9.07;;;;;20.10;101024.00;;;;5010084;28;20197;-81
2022/09/24 07:24:54;;;;;;;14.02;9.63;;;;;20.20;101025.00;;;;5004325;28;20208;-82
2022/09/24 07:27:21;;;;;;;10.98;9.23;;;;;20.10;101024.00;;;;5009529;28;20204;-81
2022/09/24 07:29:48;;;;;;;13.10;9.00;;;;;20.10;101030.00;;;;5009469;28;20196;-82
2022/09/24 07:32:17;;;;;;;13.52;9.45;;;;;20.10;101025.00;;;;5007352;28;20208;-81
2022/09/24 07:34:45;;;;;;;12.40;8.85;;;;;20.10;101034.00;;;;5008889;28;20209;-81
2022/09/24 07:37:13;;;;;;;12.82;8.85;;;;;20.10;101032.00;;;;5009260;28;20209;-81
2022/09/24 07:39:40;;;;;;;14.57;9.40;;;;;20.10;101040.00;;;;5008967;28;20201;-81
2022/09/24 07:42:07;;;;;;;13.02;9.50;;;;;20.10;101037.00;;;;4998583;28;20537;-82
2022/09/24 07:44:35;;;;;;;13.73;8.60;;;;;20.10;101034.00;;;;5006922;28;20655;-81
2022/09/24 07:47:02;;;;;;;12.73;9.55;;;;;20.20;101034.00;;;;5006687;28;20201;-80
2022/09/24 07:49:31;;;;;;;11.10;8.52;;;;;20.10;101035.00;;;;5007373;28;20941;-81
2022/09/24 07:52:00;;;;;;;11.98;9.48;;;;;20.10;101037.00;;;;5007812;28;20710;-81
2022/09/24 07:54:29;;;;;;;12.25;8.23;;;;;20.10;101043.00;;;;5007127;28;20222;-81
2022/09/24 07:56:56;;;;;;;11.82;8.82;;;;;20.10;101042.00;;;;5008783;28;20207;-81
2022/09/24 07:59:23;;;;;;;13.27;9.52;;;;;20.10;101052.00;;;;5007911;28;20254;-83
2022/09/24 08:01:51;;;;;;;12.32;8.63;;;;;20.10;101048.00;;;;5008512;28;20283;-81
2022/09/24 08:04:18;;;;;;;11.20;8.07;;;;;20.20;101048.00;;;;5017548;28;20221;-81
2022/09/24 08:06:47;;;;;;;11.07;8.32;;;;;20.20;101054.00;;;;5009005;28;20291;-81
2022/09/24 08:09:16;;;;;;;12.20;8.70;;;;;20.10;101049.00;;;;5009316;28;20209;-82
2022/09/24 08:11:44;;;;;;;11.48;8.50;;;;;20.10;101050.00;;;;5008740;28;20201;-81
2022/09/24 08:14:11;;;;;;;12.50;8.90;;;;;20.20;101051.00;;;;5008953;28;20200;-81
2022/09/24 08:16:39;;;;;;;12.18;8.90;;;;;20.20;101051.00;;;;4999062;28;20193;-81
2022/09/24 08:19:12;;;;;;;10.75;7.75;;;;;20.20;101055.00;;;;5007945;28;20289;-81
2022/09/24 08:21:40;;;;;;;9.70;7.63;;;;;20.20;101058.00;;;;5008464;28;20256;-82
2022/09/24 08:24:07;;;;;;;11.13;7.55;;;;;20.20;101055.00;;;;5008641;28;20240;-81
2022/09/24 08:26:36;;;;;;;11.60;8.68;;;;;20.20;101058.00;;;;5007697;28;20201;-81
2022/09/24 08:29:03;;;;;;;13.02;8.93;;;;;20.20;101060.00;;;;5008540;28;20189;-80
2022/09/24 08:31:32;;;;;;;12.27;8.30;;;;;20.20;101064.00;;;;5007892;28;20202;-81
2022/09/24 08:34:00;;;;;;;9.35;7.07;;;;;20.20;101062.00;;;;5005835;28;20666;-80
2022/09/24 08:36:27;;;;;;;10.68;7.63;;;;;20.20;101067.00;;;;5006598;28;20197;-80
2022/09/24 08:38:55;;;;;;;8.60;7.10;;;;;20.20;101065.00;;;;5006821;28;20220;-79
2022/09/24 08:41:38;;;;;;;11.13;8.02;;;;;20.20;101068.00;;;;5007443;28;20235;-80
2022/09/24 08:44:12;;;;;;;11.23;8.00;;;;;20.20;101072.00;;;;5005886;28;20193;-80
2022/09/24 08:49:33;;;;;;;9.38;6.82;;;;;20.20;101077.00;;;;5005271;28;20208;-80
2022/09/24 08:52:06;;;;;;;10.10;8.07;;;;;20.20;101080.00;;;;5007341;28;20734;-81
2022/09/24 08:54:36;;;;;;;11.43;8.02;;;;;20.20;101084.00;;;;5003510;28;20193;-81
2022/09/24 08:57:12;;;;;;;11.50;7.57;;;;;20.20;101087.00;;;;4999883;28;20212;-79
2022/09/24 08:59:44;;;;;;;9.68;7.38;;;;;20.20;101085.00;;;;5003766;28;20224;-79
2022/09/24 09:02:23;;;;;;;9.63;7.05;;;;;20.20;101089.00;;;;5005942;28;20236;-79
2022/09/24 09:04:59;;;;;;;9.73;7.25;;;;;20.20;101083.00;;;;5007999;28;20261;-80
2022/09/24 09:07:32;;;;;;;11.20;8.20;;;;;20.20;101090.00;;;;5000352;28;20734;-80
2022/09/24 09:10:02;;;;;;;9.48;6.75;;;;;20.30;101099.00;;;;5004114;28;20204;-78
2022/09/24 09:12:39;;;;;;;9.23;6.65;;;;;20.20;101094.00;;;;5006072;28;20231;-78
2022/09/24 09:15:11;;;;;;;9.52;7.85;;;;;20.30;101101.00;;;;5007651;28;20205;-78
2022/09/24 09:17:45;;;;;;;8.90;7.25;;;;;20.30;101107.00;;;;5009193;28;20196;-79
2022/09/24 09:20:17;;;;;;;10.30;7.68;;;;;20.30;101105.00;;;;5007002;28;20201;-79
2022/09/24 09:22:47;;;;;;;9.57;7.72;;;;;20.30;101102.00;;;;5002275;28;20225;-79
2022/09/24 09:25:22;;;;;;;9.32;7.03;;;;;20.30;101111.00;;;;5003362;28;20248;-79
2022/09/24 09:27:59;;;;;;;10.13;7.22;;;;;20.30;101110.00;;;;5005619;28;20200;-79
2022/09/24 09:30:32;;;;;;;8.77;7.20;;;;;20.30;101121.00;;;;5007828;28;20212;-79
2022/09/24 09:33:15;;;;;;;9.15;7.30;;;;;20.30;101116.00;;;;4993033;28;20192;-78
2022/09/24 09:35:51;;;;;;;10.27;7.07;;;;;20.30;101124.00;;;;5005646;28;20201;-79
2022/09/24 09:38:24;;;;;;;9.65;7.20;;;;;20.30;101123.00;;;;5008617;28;20193;-79
2022/09/24 09:40:59;;;;;;;9.88;7.03;;;;;20.40;101122.00;;;;5002624;28;20208;-79
2022/09/24 09:43:29;;;;;;;10.73;7.10;;;;;20.40;101122.00;;;;5009435;28;20195;-79
2022/09/24 09:46:06;;;;;;;10.35;8.00;;;;;20.40;101114.00;;;;5010942;28;20216;-78
2022/09/24 09:48:44;;;;;;;8.10;6.65;;;;;20.40;101122.00;;;;5010031;28;20207;-78
2022/09/24 09:51:19;;;;;;;9.15;7.07;;;;;20.40;101125.00;;;;5001698;28;20232;-78
2022/09/24 09:53:55;;;;;;;7.68;6.45;;;;;20.40;101118.00;;;;5001666;28;20209;-78
2022/09/24 09:56:29;;;;;;;10.75;6.45;;;;;20.40;101123.00;;;;5006362;28;20250;-79
2022/09/24 09:59:07;;;;;;;9.65;7.15;;;;;20.40;101125.00;;;;5007508;28;20229;-78
2022/09/24 10:01:36;;;;;;;8.05;6.22;;;;;20.40;101126.00;;;;5012645;28;20219;-79
2022/09/24 10:04:05;;;;;;;9.45;6.32;;;;;20.50;101120.00;;;;5010358;28;20307;-78
2022/09/24 10:06:34;;;;;;;7.75;6.00;;;;;20.50;101122.00;;;;5010251;28;20557;-78
2022/09/24 10:09:13;;;;;;;7.78;5.47;;;;;20.40;101124.00;;;;5008741;28;20806;-78
2022/09/24 10:11:41;;;;;;;9.48;5.40;;;;;20.50;101129.00;;;;5009723;28;20215;-79
2022/09/24 10:14:13;;;;;;;7.75;6.07;;;;;20.50;101128.00;;;;5002932;28;20198;-80
2022/09/24 10:16:45;;;;;;;7.45;6.35;;;;;20.50;101126.00;;;;5016500;28;20200;-81
2022/09/24 10:19:19;;;;;;;5.93;5.03;;;;;20.50;101129.00;;;;5025057;28;20190;-82
2022/09/24 10:21:46;;;;;;;6.82;5.25;;;;;20.60;101131.00;;;;5008238;28;20722;-79
2022/09/24 10:24:16;;;;;;;6.43;5.00;;;;;20.60;101132.00;;;;5010162;28;20591;-79
2022/09/24 10:26:46;;;;;;;6.72;5.32;;;;;20.60;101133.00;;;;5008364;28;20679;-79
2022/09/24 10:32:13;;;;;;;5.25;4.63;;;;;20.60;101133.00;;;;5010599;28;20259;-80
2022/09/24 10:34:40;;;;;;;4.72;4.00;;;;;20.60;101125.00;;;;5010118;28;20233;-81
2022/09/24 10:37:17;;;;;;;6.63;4.13;;;;;20.60;101131.00;;;;5014585;28;20204;-80
2022/09/24 10:39:45;;;;;;;5.18;3.90;;;;;20.70;101133.00;;;;5006736;28;20201;-79
2022/09/24 10:42:25;;;;;;;4.60;3.75;;;;;20.60;101137.00;;;;5009384;28;20415;-80
2022/09/24 10:44:54;;;;;;;4.60;3.60;;;;;20.70;101130.00;;;;5019595;28;20196;-79
2022/09/24 10:47:27;;;;;;;5.75;4.15;;;;;20.70;101133.00;;;;5008834;28;20196;-77
2022/09/24 10:50:16;;;;;;;5.00;4.05;;;;;20.60;101131.00;;;;5017433;28;20205;-78
2022/09/24 10:52:49;;;;;;;3.92;3.53;;;;;20.70;101138.00;;;;5008989;28;20211;-78
2022/09/24 10:55:36;;;;;;;3.53;3.20;;;;;20.70;101138.00;;;;4993401;28;20578;-79
2022/09/24 10:58:09;;;;;;;6.22;3.58;;;;;20.80;101141.00;;;;5001600;28;20240;-77
2022/09/24 11:00:48;;;;;;;4.93;3.97;;;;;20.80;101141.00;;;;5010060;28;20202;-79
2022/09/24 11:03:44;;;;;;;5.40;3.90;;;;;20.70;101150.00;;;;5009321;28;20220;-79
2022/09/24 11:06:19;;;;;;;4.90;3.83;;;;;20.80;101136.00;;;;5003390;28;20209;-79
2022/09/24 11:09:01;;;;;;;4.68;3.80;;;;;20.80;101147.00;;;;5010593;28;20200;-80
2022/09/24 11:11:39;;;;;;;4.03;3.63;;;;;20.90;101150.00;;;;5010545;28;20204;-80
2022/09/24 11:14:22;;;;;;;4.60;3.90;;;;;20.90;101149.00;;;;5009006;28;20215;-79
2022/09/24 11:17:21;;;;;;;4.35;3.72;;;;;20.80;101150.00;;;;5010410;28;20205;-80
2022/09/24 11:20:13;;;;;;;4.57;3.97;;;;;20.90;101150.00;;;;5009974;28;20786;-78
2022/09/24 11:22:54;;;;;;;4.03;3.50;;;;;20.90;101154.00;;;;4983751;28;20228;-80
2022/09/24 11:25:30;;;;;;;5.65;3.97;;;;;20.90;101153.00;;;;4991097;28;20213;-79
2022/09/24 11:28:06;;;;;;;6.22;4.68;;;;;20.90;101161.00;;;;5007072;28;20204;-79
2022/09/24 11:30:46;;;;;;;5.70;4.03;;;;;20.90;101151.00;;;;5009454;28;20211;-77
2022/09/24 11:33:28;;;;;;;4.68;3.97;;;;;20.90;101156.00;;;;5007046;28;20780;-78
2022/09/24 11:36:16;;;;;;;4.32;3.78;;;;;20.80;101156.00;;;;4998342;28;20698;-79
2022/09/24 11:39:04;;;;;;;5.30;4.30;;;;;20.80;101160.00;;;;5003389;28;20205;-81
2022/09/24 11:41:46;;;;;;;4.68;3.75;;;;;20.90;101161.00;;;;5008717;28;20228;-79
2022/09/24 11:44:52;;;;;;;4.72;4.20;;;;;20.80;101155.00;;;;5004829;28;21105;-79
2022/09/24 11:47:34;;;;;;;7.05;4.15;;;;;20.90;101163.00;;;;5007215;28;20205;-78
2022/09/24 11:50:19;;;;;;;5.88;4.55;;;;;20.80;101160.00;;;;5009246;28;20193;-79
2022/09/24 11:52:51;;;;;;;4.95;4.30;;;;;20.90;101164.00;;;;5004462;28;20694;-79
2022/09/24 11:55:24;;;;;;;5.75;4.07;;;;;20.90;101164.00;;;;5008025;28;20213;-79
2022/09/24 11:58:01;;;;;;;5.63;5.03;;;;;20.90;101164.00;;;;5008905;28;20227;-79
2022/09/24 12:00:34;;;;;;;5.38;4.30;;;;;20.90;101164.00;;;;5008652;28;20196;-78
2022/09/24 12:03:06;;;;;;;6.45;4.97;;;;;21.00;101163.00;;;;5005310;28;20229;-79
2022/09/24 12:05:40;;;;;;;6.72;5.13;;;;;21.00;101165.00;;;;5008468;28;20245;-79
2022/09/24 12:08:13;;;;;;;5.57;4.38;;;;;21.00;101164.00;;;;5009062;28;20197;-78
2022/09/24 12:10:47;;;;;;;5.70;4.80;;;;;21.00;101170.00;;;;5009262;28;20205;-78
2022/09/24 12:13:19;;;;;;;6.85;5.18;;;;;21.00;101171.00;;;;4999152;28;20209;-78
2022/09/24 12:15:51;;;;;;;5.00;3.75;;;;;21.00;101169.00;;;;5007589;28;20204;-78
2022/09/24 12:18:24;;;;;;;4.97;4.05;;;;;21.10;101173.00;;;;5008412;28;20196;-78
2022/09/24 12:20:56;;;;;;;5.07;3.92;;;;;21.10;101167.00;;;;5007819;28;20205;-78
2022/09/24 12:23:28;;;;;;;5.18;4.20;;;;;21.10;101174.00;;;;5008164;28;20233;-78
2022/09/24 12:25:57;;;;;;;4.82;3.80;;;;;21.10;101175.00;;;;5008864;28;20193;-78
2022/09/24 12:34:13;;;;;;;2.60;1.50;;;;;21.00;101172.00;;;;5008310;28;20192;-78
2022/09/24 12:36:55;;;;;;;2.67;1.17;;;;;20.90;101165.00;;;;5008447;28;20193;-78
2022/09/24 12:39:26;;;;;;;1.00;0.75;;;;;20.90;101167.00;;;;4988535;28;20208;-78